createdAt,value
2022-09-29T00:00:54.710Z,6.55
2022-09-29T00:03:23.722Z,5.53
2022-09-29T00:05:53.469Z,5.63
2022-09-29T00:08:24.406Z,4.75
2022-09-29T00:10:52.946Z,5.20
2022-09-29T00:13:21.068Z,4.47
2022-09-29T00:15:57.309Z,4.75
2022-09-29T00:18:25.416Z,4.10
2022-09-29T00:21:01.141Z,4.57
2022-09-29T00:23:31.504Z,3.95
2022-09-29T00:26:04.073Z,4.65
2022-09-29T00:28:33.414Z,4.40
2022-09-29T00:31:02.734Z,4.45
2022-09-29T00:33:31.845Z,4.25
2022-09-29T00:36:01.374Z,3.25
2022-09-29T00:38:31.685Z,4.03
2022-09-29T00:41:00.100Z,3.45
2022-09-29T00:43:50.545Z,3.60
2022-09-29T00:46:21.283Z,3.30
2022-09-29T00:48:49.922Z,3.42
2022-09-29T00:51:19.862Z,4.35
2022-09-29T00:53:49.983Z,3.33
2022-09-29T00:56:20.095Z,2.92
2022-09-29T00:58:54.934Z,2.75
2022-09-29T01:01:23.808Z,2.80
2022-09-29T01:03:56.656Z,3.35
2022-09-29T01:06:29.122Z,3.50
2022-09-29T01:09:02.270Z,3.40
2022-09-29T01:11:32.322Z,3.35
2022-09-29T01:14:03.818Z,3.45
2022-09-29T01:16:32.356Z,3.17
2022-09-29T01:19:02.058Z,2.75
2022-09-29T01:21:44.217Z,2.85
2022-09-29T01:24:49.486Z,2.55
2022-09-29T01:27:52.745Z,2.25
2022-09-29T01:30:22.355Z,2.53
2022-09-29T01:33:06.277Z,2.50
2022-09-29T01:35:43.052Z,4.07
2022-09-29T01:38:28.502Z,4.00
2022-09-29T01:41:04.244Z,2.47
2022-09-29T01:43:36.424Z,2.67
2022-09-29T01:46:07.637Z,2.58
2022-09-29T01:48:41.965Z,2.92
2022-09-29T01:51:14.484Z,2.90
2022-09-29T01:53:47.237Z,2.40
2022-09-29T01:56:20.767Z,2.30
2022-09-29T01:58:54.437Z,2.80
2022-09-29T02:01:25.247Z,2.80
2022-09-29T02:03:58.407Z,2.85
2022-09-29T02:06:31.011Z,2.70
2022-09-29T02:09:01.766Z,3.08
2022-09-29T02:11:33.291Z,2.95
2022-09-29T02:14:05.806Z,2.88
2022-09-29T02:16:41.524Z,2.95
2022-09-29T02:19:17.623Z,2.67
2022-09-29T02:21:45.788Z,2.80
2022-09-29T02:24:14.578Z,2.58
2022-09-29T02:26:45.184Z,2.47
2022-09-29T02:29:13.188Z,2.88
2022-09-29T02:31:41.837Z,3.17
2022-09-29T02:34:16.178Z,3.33
2022-09-29T02:36:55.650Z,4.32
2022-09-29T02:39:36.081Z,3.65
2022-09-29T02:42:13.038Z,2.90
2022-09-29T02:44:56.462Z,2.70
2022-09-29T02:47:39.129Z,3.72
2022-09-29T02:50:28.044Z,3.05
2022-09-29T02:53:03.952Z,3.53
2022-09-29T02:55:39.336Z,4.18
2022-09-29T02:58:15.280Z,4.25
2022-09-29T03:00:44.625Z,4.63
2022-09-29T03:03:12.722Z,3.58
2022-09-29T03:05:42.153Z,4.80
2022-09-29T03:08:10.107Z,3.35
2022-09-29T03:10:38.150Z,3.38
2022-09-29T03:13:06.357Z,3.03
2022-09-29T03:15:34.318Z,4.70
2022-09-29T03:18:06.991Z,4.90
2022-09-29T03:20:37.360Z,4.90
2022-09-29T03:23:06.731Z,5.13
2022-09-29T03:25:34.746Z,4.72
2022-09-29T03:28:03.070Z,3.33
2022-09-29T03:30:31.065Z,3.40
2022-09-29T03:32:59.123Z,4.15
2022-09-29T03:35:27.161Z,3.35
2022-09-29T03:37:59.905Z,3.33
2022-09-29T03:40:29.667Z,4.15
2022-09-29T03:42:57.702Z,3.92
2022-09-29T03:45:25.793Z,4.38
2022-09-29T03:47:53.842Z,3.55
2022-09-29T03:50:21.842Z,3.47
2022-09-29T03:52:49.807Z,3.00
2022-09-29T03:55:17.977Z,3.60
2022-09-29T03:57:47.518Z,3.30
2022-09-29T04:00:16.529Z,3.05
2022-09-29T04:02:44.540Z,2.72
2022-09-29T04:05:12.585Z,3.17
2022-09-29T04:07:40.621Z,3.90
2022-09-29T04:10:09.249Z,3.10
2022-09-29T04:12:37.268Z,3.03
2022-09-29T04:15:07.763Z,3.08
2022-09-29T04:17:35.907Z,3.05
2022-09-29T04:20:03.895Z,3.05
2022-09-29T04:22:31.971Z,3.20
2022-09-29T04:24:59.946Z,3.53
2022-09-29T04:27:27.958Z,4.72
2022-09-29T04:29:55.954Z,4.60
2022-09-29T04:32:26.012Z,4.18
2022-09-29T04:34:54.043Z,3.40
2022-09-29T04:37:22.032Z,3.58
2022-09-29T04:39:50.034Z,3.10
2022-09-29T04:42:18.018Z,3.45
2022-09-29T04:44:47.005Z,4.30
2022-09-29T04:47:15.573Z,3.30
2022-09-29T04:49:44.948Z,2.88
2022-09-29T04:52:13.082Z,3.50
2022-09-29T04:54:41.563Z,3.35
2022-09-29T04:57:10.616Z,4.70
2022-09-29T04:59:38.626Z,3.60
2022-09-29T05:02:06.734Z,3.47
2022-09-29T05:04:34.734Z,4.22
2022-09-29T05:07:04.364Z,3.30
2022-09-29T05:09:33.939Z,3.65
2022-09-29T05:12:02.587Z,5.95
2022-09-29T05:14:30.560Z,3.70
2022-09-29T05:16:59.643Z,3.70
2022-09-29T05:19:27.623Z,4.85
2022-09-29T05:21:55.645Z,4.30
2022-09-29T05:24:25.437Z,3.67
2022-09-29T05:26:58.128Z,4.07
2022-09-29T05:29:26.635Z,4.00
2022-09-29T05:31:54.798Z,4.22
2022-09-29T05:34:23.010Z,4.13
2022-09-29T05:36:51.167Z,4.32
2022-09-29T05:39:21.124Z,4.57
2022-09-29T05:41:51.005Z,3.85
2022-09-29T05:44:19.080Z,5.50
2022-09-29T05:46:47.331Z,4.15
2022-09-29T05:49:15.363Z,4.38
2022-09-29T05:51:43.399Z,3.63
2022-09-29T05:54:11.540Z,5.28
2022-09-29T05:56:43.158Z,4.28
2022-09-29T05:59:15.175Z,4.55
2022-09-29T06:01:43.818Z,4.03
2022-09-29T06:04:12.220Z,3.65
2022-09-29T06:06:40.707Z,4.25
2022-09-29T06:09:09.132Z,4.38
2022-09-29T06:11:37.097Z,5.18
2022-09-29T06:14:05.102Z,4.15
2022-09-29T06:16:35.026Z,4.68
2022-09-29T06:19:03.781Z,4.55
2022-09-29T06:21:35.305Z,6.18
2022-09-29T06:24:03.757Z,5.45
2022-09-29T06:26:31.773Z,5.18
2022-09-29T06:28:59.801Z,4.85
2022-09-29T06:31:29.744Z,5.20
2022-09-29T06:34:00.541Z,4.75
2022-09-29T06:36:49.788Z,5.47
2022-09-29T06:39:18.332Z,6.05
2022-09-29T06:41:52.128Z,5.18
2022-09-29T06:44:20.326Z,5.68
2022-09-29T06:46:48.459Z,7.57
2022-09-29T06:49:18.231Z,8.32
2022-09-29T06:51:46.905Z,7.18
2022-09-29T06:54:16.883Z,7.60
2022-09-29T06:56:48.198Z,7.72
2022-09-29T06:59:16.648Z,8.52
2022-09-29T07:01:45.326Z,7.25
2022-09-29T07:04:13.752Z,7.55
2022-09-29T07:06:43.110Z,7.72
2022-09-29T07:09:15.997Z,7.28
2022-09-29T07:11:46.841Z,7.47
2022-09-29T07:14:15.263Z,7.80
2022-09-29T07:16:44.168Z,7.65
2022-09-29T07:19:12.379Z,7.95
2022-09-29T07:21:41.855Z,6.97
2022-09-29T07:24:10.466Z,7.60
2022-09-29T07:26:38.536Z,7.93
2022-09-29T07:29:07.761Z,8.23
2022-09-29T07:31:48.988Z,7.13
2022-09-29T07:34:19.359Z,7.43
2022-09-29T07:36:48.744Z,8.20
2022-09-29T07:39:16.826Z,7.30
2022-09-29T07:41:44.870Z,8.10
2022-09-29T07:44:12.913Z,7.53
2022-09-29T07:46:41.007Z,7.82
2022-09-29T07:49:09.180Z,8.13
2022-09-29T07:51:37.424Z,8.27
2022-09-29T07:54:06.966Z,7.68
2022-09-29T07:56:35.475Z,8.00
2022-09-29T07:59:04.291Z,7.15
2022-09-29T08:01:32.913Z,7.15
2022-09-29T08:04:02.075Z,7.95
2022-09-29T08:06:30.285Z,7.50
2022-09-29T08:09:04.239Z,7.63
2022-09-29T08:11:37.907Z,7.63
2022-09-29T08:14:06.592Z,7.88
2022-09-29T08:16:35.302Z,8.18
2022-09-29T08:19:05.266Z,6.80
2022-09-29T08:21:36.558Z,7.65
2022-09-29T08:24:05.788Z,7.25
2022-09-29T08:26:42.764Z,7.38
2022-09-29T08:29:15.931Z,7.70
2022-09-29T08:31:45.354Z,6.82
2022-09-29T08:34:14.594Z,7.22
2022-09-29T08:36:44.518Z,6.88
2022-09-29T08:39:13.057Z,7.47
2022-09-29T08:41:55.422Z,6.43
2022-09-29T08:44:38.510Z,6.35
2022-09-29T08:47:17.931Z,6.55
2022-09-29T08:49:48.759Z,6.10
2022-09-29T08:52:21.590Z,6.07
2022-09-29T08:54:51.077Z,6.40
2022-09-29T08:57:21.669Z,4.90
2022-09-29T08:59:55.329Z,5.43
2022-09-29T09:03:05.126Z,5.45
2022-09-29T09:05:56.730Z,5.05
2022-09-29T09:08:41.611Z,5.30
2022-09-29T09:11:24.115Z,4.82
2022-09-29T09:14:07.277Z,5.70
2022-09-29T09:16:44.516Z,5.35
2022-09-29T09:19:59.146Z,5.60
2022-09-29T09:25:20.103Z,4.70
2022-09-29T09:28:00.506Z,3.70
2022-09-29T09:30:35.196Z,3.50
2022-09-29T09:33:07.127Z,4.32
2022-09-29T09:35:50.328Z,4.65
2022-09-29T09:38:25.979Z,4.03
2022-09-29T09:40:56.526Z,4.20
2022-09-29T09:43:31.868Z,4.55
2022-09-29T09:46:05.009Z,4.28
2022-09-29T09:48:37.633Z,3.75
2022-09-29T09:51:37.280Z,3.40
2022-09-29T09:54:10.621Z,3.67
2022-09-29T09:56:53.775Z,4.15
2022-09-29T09:59:33.795Z,3.85
2022-09-29T10:02:03.541Z,4.30
2022-09-29T10:04:32.810Z,3.85
2022-09-29T10:07:01.181Z,3.60
2022-09-29T10:09:29.869Z,3.72
2022-09-29T10:11:58.234Z,2.95
2022-09-29T10:14:27.982Z,3.33
2022-09-29T10:17:00.256Z,3.00
2022-09-29T10:20:00.594Z,2.97
2022-09-29T10:22:29.646Z,3.15
2022-09-29T10:25:09.717Z,3.22
2022-09-29T10:27:42.928Z,3.00
2022-09-29T10:30:20.396Z,3.38
2022-09-29T10:32:48.850Z,3.17
2022-09-29T10:35:25.079Z,2.83
2022-09-29T10:38:02.166Z,2.65
2022-09-29T10:40:30.390Z,2.92
2022-09-29T10:42:59.138Z,2.40
2022-09-29T10:45:29.273Z,2.67
2022-09-29T10:48:13.917Z,1.88
2022-09-29T10:50:53.076Z,2.13
2022-09-29T10:53:32.034Z,2.00
2022-09-29T10:56:02.060Z,2.10
2022-09-29T10:58:44.449Z,2.22
2022-09-29T11:01:21.280Z,2.00
2022-09-29T11:03:53.661Z,1.95
2022-09-29T11:06:27.811Z,1.80
2022-09-29T11:08:57.074Z,1.92
2022-09-29T11:11:26.821Z,2.63
2022-09-29T11:13:56.062Z,2.40
2022-09-29T11:16:31.169Z,2.20
2022-09-29T11:19:04.401Z,2.25
2022-09-29T11:21:58.931Z,1.70
2022-09-29T11:24:49.328Z,2.08
2022-09-29T11:27:27.863Z,2.53
2022-09-29T11:30:04.630Z,1.70
2022-09-29T11:32:54.036Z,1.70
2022-09-29T11:35:35.893Z,1.95
2022-09-29T11:38:24.700Z,1.85
2022-09-29T11:41:05.965Z,1.42
2022-09-29T11:43:45.945Z,1.55
2022-09-29T11:46:45.414Z,1.65
2022-09-29T11:49:20.258Z,1.80
2022-09-29T11:52:06.585Z,1.70
2022-09-29T11:54:48.236Z,1.52
2022-09-29T11:57:19.763Z,1.58
2022-09-29T11:59:53.459Z,1.17
2022-09-29T12:02:51.649Z,1.50
2022-09-29T12:05:25.972Z,1.17
2022-09-29T12:08:05.931Z,1.33
2022-09-29T12:10:57.662Z,1.58
2022-09-29T12:13:34.430Z,1.10
2022-09-29T12:16:08.683Z,1.52
2022-09-29T12:18:42.024Z,1.75
2022-09-29T12:21:15.529Z,1.40
2022-09-29T12:23:47.571Z,1.63
2022-09-29T12:26:18.611Z,1.35
2022-09-29T12:28:51.649Z,1.33
2022-09-29T12:31:24.428Z,1.45
2022-09-29T12:33:56.406Z,1.27
2022-09-29T12:36:46.709Z,1.52
2022-09-29T12:39:33.586Z,1.33
2022-09-29T12:42:29.281Z,1.20
2022-09-29T12:45:02.856Z,1.52
2022-09-29T12:47:48.407Z,1.52
2022-09-29T12:50:20.988Z,1.45
2022-09-29T12:52:57.163Z,1.50
2022-09-29T12:55:33.388Z,1.20
2022-09-29T12:58:07.346Z,1.83
2022-09-29T13:00:37.446Z,1.50
2022-09-29T13:03:44.756Z,1.30
2022-09-29T13:06:37.448Z,1.20
2022-09-29T13:09:26.167Z,1.33
2022-09-29T13:12:12.151Z,1.13
2022-09-29T13:14:58.657Z,1.40
2022-09-29T13:17:48.535Z,1.40
2022-09-29T13:20:44.721Z,1.40
2022-09-29T13:23:37.723Z,1.07
2022-09-29T13:26:32.629Z,1.25
2022-09-29T13:29:04.069Z,1.40
2022-09-29T13:34:08.486Z,1.00
2022-09-29T13:36:40.390Z,0.93
2022-09-29T13:39:22.169Z,0.90
2022-09-29T13:41:50.170Z,0.93
2022-09-29T13:44:24.857Z,0.90
2022-09-29T13:46:56.143Z,0.98
2022-09-29T13:49:31.586Z,1.02
2022-09-29T13:54:34.076Z,0.80
2022-09-29T13:57:27.105Z,0.90
2022-09-29T14:00:20.933Z,0.95
2022-09-29T14:03:02.670Z,1.40
2022-09-29T14:05:57.079Z,1.38
2022-09-29T14:08:32.374Z,1.20
2022-09-29T14:11:12.610Z,1.30
2022-09-29T14:13:46.847Z,0.95
2022-09-29T14:16:32.963Z,1.10
2022-09-29T14:19:08.601Z,0.80
2022-09-29T14:21:57.055Z,0.95
2022-09-29T14:24:47.066Z,0.70
2022-09-29T14:27:38.849Z,0.80
2022-09-29T14:30:16.808Z,0.80
2022-09-29T14:32:52.254Z,0.93
2022-09-29T14:40:29.738Z,1.05
2022-09-29T14:43:10.668Z,0.93
2022-09-29T14:46:20.630Z,1.05
2022-09-29T14:49:20.541Z,0.90
2022-09-29T14:52:01.346Z,1.08
2022-09-29T14:54:42.589Z,1.05
2022-09-29T14:57:33.562Z,1.10
2022-09-29T15:00:04.741Z,1.23
2022-09-29T15:02:37.084Z,0.95
2022-09-29T15:05:14.100Z,1.40
2022-09-29T15:07:43.984Z,1.15
2022-09-29T15:10:23.706Z,0.93
2022-09-29T15:12:52.086Z,1.20
2022-09-29T15:15:35.501Z,0.90
2022-09-29T15:18:16.377Z,1.23
2022-09-29T15:20:57.488Z,1.10
2022-09-29T15:23:56.025Z,0.90
2022-09-29T15:26:29.489Z,1.15
2022-09-29T15:28:57.970Z,0.90
2022-09-29T15:31:30.708Z,1.00
2022-09-29T15:33:58.868Z,1.17
2022-09-29T15:36:31.526Z,1.00
2022-09-29T15:39:06.538Z,1.00
2022-09-29T15:41:36.935Z,1.27
2022-09-29T15:44:18.078Z,1.08
2022-09-29T15:46:50.153Z,1.00
2022-09-29T15:49:20.078Z,1.10
2022-09-29T15:51:58.018Z,1.05
2022-09-29T15:54:28.043Z,1.40
2022-09-29T15:57:14.886Z,1.15
2022-09-29T15:59:48.904Z,0.90
2022-09-29T16:02:24.893Z,1.05
2022-09-29T16:04:56.383Z,1.00
2022-09-29T16:07:29.233Z,1.00
2022-09-29T16:10:04.896Z,0.93
2022-09-29T16:12:41.342Z,1.00
2022-09-29T16:15:17.288Z,1.10
2022-09-29T16:17:45.523Z,1.60
2022-09-29T16:20:17.266Z,1.83
2022-09-29T16:22:48.867Z,1.80
2022-09-29T16:25:24.374Z,1.50
2022-09-29T16:30:35.831Z,2.65
2022-09-29T16:33:06.296Z,2.83
2022-09-29T16:35:43.185Z,2.60
2022-09-29T16:38:31.082Z,1.85
2022-09-29T16:40:59.120Z,2.28
2022-09-29T16:43:30.673Z,1.70
2022-09-29T16:46:03.338Z,2.00
2022-09-29T16:48:37.637Z,2.42
2022-09-29T16:51:27.785Z,3.00
2022-09-29T16:54:00.101Z,3.10
2022-09-29T16:56:33.580Z,3.10
2022-09-29T16:59:05.387Z,3.00
2022-09-29T17:01:34.867Z,2.88
2022-09-29T17:04:03.164Z,2.78
2022-09-29T17:06:31.699Z,2.45
2022-09-29T17:09:00.020Z,2.00
2022-09-29T17:11:28.839Z,2.40
2022-09-29T17:13:57.629Z,2.60
2022-09-29T17:16:25.890Z,2.20
2022-09-29T17:18:56.306Z,2.33
2022-09-29T17:21:25.441Z,2.83
2022-09-29T17:23:54.654Z,3.53
2022-09-29T17:26:43.758Z,4.35
2022-09-29T17:29:11.884Z,5.45
2022-09-29T17:31:39.903Z,6.88
2022-09-29T17:34:09.286Z,4.72
2022-09-29T17:36:38.630Z,4.97
2022-09-29T17:39:06.844Z,4.35
2022-09-29T17:41:34.874Z,3.47
2022-09-29T17:44:10.326Z,3.30
2022-09-29T17:49:07.863Z,2.83
2022-09-29T17:51:37.508Z,3.20
2022-09-29T17:54:05.760Z,2.95
2022-09-29T17:56:40.059Z,3.38
2022-09-29T17:59:10.223Z,3.25
2022-09-29T18:01:39.339Z,3.67
2022-09-29T18:04:08.296Z,3.40
2022-09-29T18:06:38.672Z,3.65
2022-09-29T18:09:15.520Z,3.80
2022-09-29T18:11:43.963Z,3.90
2022-09-29T18:14:12.014Z,3.35
2022-09-29T18:16:40.055Z,3.83
2022-09-29T18:19:16.988Z,3.28
2022-09-29T18:21:46.486Z,3.63
2022-09-29T18:24:15.642Z,3.60
2022-09-29T18:26:46.952Z,3.50
2022-09-29T18:29:17.433Z,3.60
2022-09-29T18:31:45.827Z,3.03
2022-09-29T18:34:17.213Z,3.00
2022-09-29T18:36:46.923Z,3.17
2022-09-29T18:39:15.025Z,2.92
2022-09-29T18:41:43.309Z,3.60
2022-09-29T18:44:16.258Z,3.35
2022-09-29T18:46:45.517Z,3.30
2022-09-29T18:49:14.796Z,3.08
2022-09-29T18:51:43.262Z,3.50
2022-09-29T18:54:13.427Z,3.85
2022-09-29T18:56:41.594Z,3.70
2022-09-29T18:59:12.358Z,3.78
2022-09-29T19:01:41.548Z,3.47
2022-09-29T19:04:10.995Z,3.40
2022-09-29T19:06:39.312Z,3.42
2022-09-29T19:09:07.407Z,3.45
2022-09-29T19:11:37.123Z,3.05
2022-09-29T19:14:05.921Z,3.22
2022-09-29T19:16:34.541Z,3.00
2022-09-29T19:19:04.470Z,3.50
2022-09-29T19:21:33.401Z,4.20
2022-09-29T19:24:01.881Z,5.22
2022-09-29T19:26:30.436Z,3.75
2022-09-29T19:28:59.857Z,3.85
2022-09-29T19:31:28.231Z,4.88
2022-09-29T19:33:57.497Z,4.32
2022-09-29T19:36:25.632Z,4.45
2022-09-29T19:38:53.638Z,4.63
2022-09-29T19:41:24.031Z,4.20
2022-09-29T19:43:52.848Z,5.07
2022-09-29T19:46:22.944Z,4.20
2022-09-29T19:48:51.085Z,4.43
2022-09-29T19:51:47.487Z,3.80
2022-09-29T19:54:18.926Z,4.35
2022-09-29T19:56:49.511Z,4.43
2022-09-29T19:59:18.706Z,6.63
2022-09-29T20:01:50.285Z,6.00
2022-09-29T20:04:19.116Z,4.80
2022-09-29T20:06:47.606Z,4.85
2022-09-29T20:09:16.682Z,7.95
2022-09-29T20:11:47.089Z,7.15
2022-09-29T20:14:16.588Z,7.05
2022-09-29T20:16:45.938Z,6.15
2022-09-29T20:19:16.508Z,7.63
2022-09-29T20:21:47.275Z,6.88
2022-09-29T20:24:17.231Z,6.40
2022-09-29T20:26:47.182Z,7.47
2022-09-29T20:29:18.413Z,6.57
2022-09-29T20:31:46.631Z,8.02
2022-09-29T20:34:18.474Z,9.05
2022-09-29T20:36:49.792Z,9.38
2022-09-29T20:39:20.311Z,8.68
2022-09-29T20:41:50.073Z,11.32
2022-09-29T20:44:23.646Z,14.95
2022-09-29T20:46:53.232Z,14.48
2022-09-29T20:49:22.886Z,13.73
2022-09-29T20:51:51.713Z,10.65
2022-09-29T20:54:20.677Z,9.50
2022-09-29T20:56:49.898Z,10.02
2022-09-29T20:59:20.094Z,8.23
2022-09-29T21:01:48.873Z,7.28
2022-09-29T21:04:19.166Z,7.20
2022-09-29T21:06:50.965Z,6.40
2022-09-29T21:09:22.036Z,8.52
2022-09-29T21:11:51.555Z,10.60
2022-09-29T21:14:23.478Z,8.95
2022-09-29T21:16:53.218Z,9.68
2022-09-29T21:19:26.548Z,11.75
2022-09-29T21:21:56.519Z,10.77
2022-09-29T21:24:24.722Z,9.82
2022-09-29T21:26:55.421Z,10.23
2022-09-29T21:29:23.730Z,10.38
2022-09-29T21:31:51.815Z,8.60
2022-09-29T21:34:20.006Z,8.93
2022-09-29T21:36:48.118Z,8.50
2022-09-29T21:39:17.579Z,7.60
2022-09-29T21:41:45.936Z,7.85
2022-09-29T21:44:15.849Z,7.05
2022-09-29T21:46:44.895Z,8.10
2022-09-29T21:49:14.623Z,11.60
2022-09-29T21:51:44.527Z,11.20
2022-09-29T21:54:14.044Z,9.00
2022-09-29T21:56:44.689Z,7.97
2022-09-29T21:59:14.050Z,8.35
2022-09-29T22:01:42.704Z,7.93
2022-09-29T22:04:11.163Z,7.60
2022-09-29T22:06:40.521Z,7.35
2022-09-29T22:09:09.592Z,9.15
2022-09-29T22:11:39.255Z,12.50
2022-09-29T22:14:08.913Z,8.27
2022-09-29T22:16:39.941Z,8.07
2022-09-29T22:19:24.942Z,7.15
2022-09-29T22:21:54.051Z,7.20
2022-09-29T22:24:23.919Z,6.68
2022-09-29T22:26:52.329Z,6.95
2022-09-29T22:29:21.905Z,8.18
2022-09-29T22:31:49.986Z,7.45
2022-09-29T22:34:18.079Z,6.90
2022-09-29T22:36:46.121Z,7.68
2022-09-29T22:39:14.193Z,9.23
2022-09-29T22:41:43.123Z,9.60
2022-09-29T22:44:12.339Z,8.77
2022-09-29T22:46:41.762Z,9.20
2022-09-29T22:49:10.009Z,10.55
2022-09-29T22:51:38.075Z,8.00
2022-09-29T22:54:06.428Z,7.43
2022-09-29T22:56:34.411Z,7.90
2022-09-29T22:59:04.340Z,7.43
2022-09-29T23:01:33.761Z,6.97
2022-09-29T23:04:04.108Z,6.72
2022-09-29T23:06:32.456Z,8.70
2022-09-29T23:09:00.651Z,6.97
2022-09-29T23:11:30.052Z,9.65
2022-09-29T23:14:00.284Z,8.60
2022-09-29T23:16:28.666Z,9.23
2022-09-29T23:18:58.743Z,7.53
2022-09-29T23:21:28.276Z,7.40
2022-09-29T23:23:57.574Z,7.13
2022-09-29T23:26:25.817Z,7.68
2022-09-29T23:28:55.244Z,8.48
2022-09-29T23:31:23.491Z,6.60
2022-09-29T23:33:56.510Z,5.93
2022-09-29T23:36:26.089Z,6.22
2022-09-29T23:39:09.680Z,5.50
2022-09-29T23:41:39.608Z,4.90
2022-09-29T23:44:07.919Z,5.35
2022-09-29T23:46:38.042Z,5.22
2022-09-29T23:49:09.451Z,6.88
2022-09-29T23:51:39.053Z,5.70
2022-09-29T23:54:09.565Z,5.20
2022-09-29T23:56:37.623Z,5.95
2022-09-29T23:59:06.076Z,5.68
